sensor_id;sensor_type;location;lat;lon;timestamp;P1;durP1;ratioP1;P2;durP2;ratioP2
61483;SDS011;47349;55.640;37.692;2023-07-16T00:00:01;11.48;;;9.20;;
61483;SDS011;47349;55.640;37.692;2023-07-16T00:03:05;11.45;;;8.48;;
61483;SDS011;47349;55.640;37.692;2023-07-16T00:05:38;10.32;;;8.82;;
61483;SDS011;47349;55.640;37.692;2023-07-16T00:08:26;11.60;;;8.80;;
61483;SDS011;47349;55.640;37.692;2023-07-16T00:11:09;17.02;;;9.43;;
61483;SDS011;47349;55.640;37.692;2023-07-16T00:13:53;12.77;;;8.98;;
61483;SDS011;47349;55.640;37.692;2023-07-16T00:16:37;11.30;;;9.52;;
61483;SDS011;47349;55.640;37.692;2023-07-16T00:19:25;14.13;;;9.90;;
61483;SDS011;47349;55.640;37.692;2023-07-16T00:22:09;9.98;;;8.80;;
61483;SDS011;47349;55.640;37.692;2023-07-16T00:24:53;10.88;;;9.13;;
61483;SDS011;47349;55.640;37.692;2023-07-16T00:28:44;13.23;;;9.52;;
61483;SDS011;47349;55.640;37.692;2023-07-16T00:31:27;12.30;;;9.05;;
61483;SDS011;47349;55.640;37.692;2023-07-16T00:34:11;10.77;;;9.27;;
61483;SDS011;47349;55.640;37.692;2023-07-16T00:36:57;13.60;;;9.88;;
61483;SDS011;47349;55.640;37.692;2023-07-16T00:39:43;18.63;;;10.02;;
61483;SDS011;47349;55.640;37.692;2023-07-16T00:42:29;10.68;;;9.02;;
61483;SDS011;47349;55.640;37.692;2023-07-16T00:45:12;12.52;;;9.43;;
61483;SDS011;47349;55.640;37.692;2023-07-16T00:48:00;12.68;;;9.52;;
61483;SDS011;47349;55.640;37.692;2023-07-16T00:50:41;13.45;;;9.88;;
61483;SDS011;47349;55.640;37.692;2023-07-16T00:53:35;13.18;;;9.45;;
61483;SDS011;47349;55.640;37.692;2023-07-16T00:56:21;13.57;;;10.20;;
61483;SDS011;47349;55.640;37.692;2023-07-16T01:01:59;9.98;;;8.63;;
61483;SDS011;47349;55.640;37.692;2023-07-16T01:04:40;10.45;;;8.20;;
61483;SDS011;47349;55.640;37.692;2023-07-16T01:07:27;10.85;;;9.73;;
61483;SDS011;47349;55.640;37.692;2023-07-16T01:10:08;11.52;;;9.45;;
61483;SDS011;47349;55.640;37.692;2023-07-16T01:12:53;12.85;;;7.93;;
61483;SDS011;47349;55.640;37.692;2023-07-16T01:15:37;11.50;;;9.60;;
61483;SDS011;47349;55.640;37.692;2023-07-16T01:31:43;12.07;;;9.10;;
61483;SDS011;47349;55.640;37.692;2023-07-16T01:34:16;10.20;;;8.18;;
61483;SDS011;47349;55.640;37.692;2023-07-16T01:36:45;14.10;;;9.18;;
61483;SDS011;47349;55.640;37.692;2023-07-16T01:39:13;12.43;;;8.18;;
61483;SDS011;47349;55.640;37.692;2023-07-16T01:41:41;9.55;;;8.50;;
61483;SDS011;47349;55.640;37.692;2023-07-16T01:44:08;9.02;;;8.13;;
61483;SDS011;47349;55.640;37.692;2023-07-16T01:46:36;9.55;;;8.40;;
61483;SDS011;47349;55.640;37.692;2023-07-16T01:49:03;13.63;;;8.35;;
61483;SDS011;47349;55.640;37.692;2023-07-16T01:51:30;9.80;;;7.90;;
61483;SDS011;47349;55.640;37.692;2023-07-16T01:53:58;12.77;;;10.38;;
61483;SDS011;47349;55.640;37.692;2023-07-16T01:56:25;11.70;;;8.80;;
61483;SDS011;47349;55.640;37.692;2023-07-16T01:58:52;12.73;;;7.35;;
61483;SDS011;47349;55.640;37.692;2023-07-16T02:01:19;10.43;;;7.93;;
61483;SDS011;47349;55.640;37.692;2023-07-16T02:03:47;11.07;;;7.53;;
61483;SDS011;47349;55.640;37.692;2023-07-16T02:06:14;9.43;;;8.07;;
61483;SDS011;47349;55.640;37.692;2023-07-16T02:08:42;9.90;;;7.38;;
61483;SDS011;47349;55.640;37.692;2023-07-16T02:11:09;9.75;;;8.75;;
61483;SDS011;47349;55.640;37.692;2023-07-16T02:13:36;9.85;;;8.10;;
61483;SDS011;47349;55.640;37.692;2023-07-16T02:16:04;12.80;;;8.43;;
61483;SDS011;47349;55.640;37.692;2023-07-16T02:18:31;10.63;;;7.50;;
61483;SDS011;47349;55.640;37.692;2023-07-16T02:21:18;11.73;;;8.13;;
61483;SDS011;47349;55.640;37.692;2023-07-16T02:23:47;9.23;;;7.07;;
61483;SDS011;47349;55.640;37.692;2023-07-16T02:26:14;10.95;;;8.05;;
61483;SDS011;47349;55.640;37.692;2023-07-16T02:28:42;9.80;;;8.32;;
61483;SDS011;47349;55.640;37.692;2023-07-16T02:31:09;9.98;;;7.40;;
61483;SDS011;47349;55.640;37.692;2023-07-16T02:33:40;10.77;;;8.50;;
61483;SDS011;47349;55.640;37.692;2023-07-16T02:36:07;11.05;;;8.57;;
61483;SDS011;47349;55.640;37.692;2023-07-16T02:38:34;9.82;;;7.80;;
61483;SDS011;47349;55.640;37.692;2023-07-16T02:41:02;12.23;;;7.85;;
61483;SDS011;47349;55.640;37.692;2023-07-16T02:43:32;13.05;;;8.75;;
61483;SDS011;47349;55.640;37.692;2023-07-16T02:45:59;12.50;;;8.18;;
61483;SDS011;47349;55.640;37.692;2023-07-16T02:48:28;10.13;;;8.30;;
61483;SDS011;47349;55.640;37.692;2023-07-16T02:50:55;9.85;;;8.05;;
61483;SDS011;47349;55.640;37.692;2023-07-16T02:53:22;12.23;;;7.93;;
61483;SDS011;47349;55.640;37.692;2023-07-16T02:55:50;11.68;;;7.63;;
61483;SDS011;47349;55.640;37.692;2023-07-16T02:58:17;12.40;;;8.68;;
61483;SDS011;47349;55.640;37.692;2023-07-16T03:00:44;9.95;;;7.28;;
61483;SDS011;47349;55.640;37.692;2023-07-16T03:03:11;11.50;;;8.10;;
61483;SDS011;47349;55.640;37.692;2023-07-16T03:05:38;15.10;;;10.73;;
61483;SDS011;47349;55.640;37.692;2023-07-16T03:08:06;16.80;;;10.88;;
61483;SDS011;47349;55.640;37.692;2023-07-16T03:10:33;11.65;;;8.50;;
61483;SDS011;47349;55.640;37.692;2023-07-16T03:13:00;9.65;;;7.70;;
61483;SDS011;47349;55.640;37.692;2023-07-16T03:15:28;12.65;;;7.53;;
61483;SDS011;47349;55.640;37.692;2023-07-16T03:17:55;11.77;;;7.32;;
61483;SDS011;47349;55.640;37.692;2023-07-16T03:20:23;9.00;;;7.43;;
61483;SDS011;47349;55.640;37.692;2023-07-16T03:22:50;10.65;;;7.88;;
61483;SDS011;47349;55.640;37.692;2023-07-16T03:25:17;9.55;;;8.38;;
61483;SDS011;47349;55.640;37.692;2023-07-16T03:27:45;18.35;;;15.50;;
61483;SDS011;47349;55.640;37.692;2023-07-16T03:30:12;9.43;;;8.43;;
61483;SDS011;47349;55.640;37.692;2023-07-16T03:32:39;11.95;;;7.60;;
61483;SDS011;47349;55.640;37.692;2023-07-16T03:35:20;9.63;;;7.68;;
61483;SDS011;47349;55.640;37.692;2023-07-16T03:37:51;12.15;;;8.57;;
61483;SDS011;47349;55.640;37.692;2023-07-16T03:40:23;12.40;;;8.98;;
61483;SDS011;47349;55.640;37.692;2023-07-16T03:42:52;11.00;;;8.07;;
61483;SDS011;47349;55.640;37.692;2023-07-16T03:45:20;10.50;;;8.27;;
61483;SDS011;47349;55.640;37.692;2023-07-16T03:47:47;11.50;;;8.15;;
61483;SDS011;47349;55.640;37.692;2023-07-16T03:50:14;14.20;;;8.07;;
61483;SDS011;47349;55.640;37.692;2023-07-16T03:52:43;10.82;;;7.63;;
61483;SDS011;47349;55.640;37.692;2023-07-16T03:55:10;11.52;;;7.13;;
61483;SDS011;47349;55.640;37.692;2023-07-16T03:57:37;12.75;;;8.00;;
61483;SDS011;47349;55.640;37.692;2023-07-16T04:00:07;12.40;;;8.23;;
61483;SDS011;47349;55.640;37.692;2023-07-16T04:02:47;14.27;;;8.35;;
61483;SDS011;47349;55.640;37.692;2023-07-16T04:05:17;15.57;;;9.25;;
61483;SDS011;47349;55.640;37.692;2023-07-16T04:07:49;19.13;;;9.10;;
61483;SDS011;47349;55.640;37.692;2023-07-16T04:10:16;13.30;;;8.95;;
61483;SDS011;47349;55.640;37.692;2023-07-16T04:12:45;13.77;;;9.52;;
61483;SDS011;47349;55.640;37.692;2023-07-16T04:15:12;10.77;;;8.32;;
61483;SDS011;47349;55.640;37.692;2023-07-16T04:17:39;9.52;;;8.45;;
61483;SDS011;47349;55.640;37.692;2023-07-16T04:20:06;13.93;;;8.65;;
61483;SDS011;47349;55.640;37.692;2023-07-16T04:22:34;9.98;;;8.68;;
61483;SDS011;47349;55.640;37.692;2023-07-16T04:25:03;12.32;;;7.32;;
61483;SDS011;47349;55.640;37.692;2023-07-16T04:27:32;9.95;;;8.15;;
61483;SDS011;47349;55.640;37.692;2023-07-16T04:29:59;10.57;;;8.02;;
61483;SDS011;47349;55.640;37.692;2023-07-16T04:32:30;13.95;;;8.65;;
61483;SDS011;47349;55.640;37.692;2023-07-16T04:34:57;10.55;;;7.93;;
61483;SDS011;47349;55.640;37.692;2023-07-16T04:37:24;11.23;;;8.55;;
61483;SDS011;47349;55.640;37.692;2023-07-16T04:39:51;11.13;;;9.13;;
61483;SDS011;47349;55.640;37.692;2023-07-16T04:42:19;12.05;;;9.23;;
61483;SDS011;47349;55.640;37.692;2023-07-16T04:44:47;9.70;;;8.02;;
61483;SDS011;47349;55.640;37.692;2023-07-16T04:47:14;16.02;;;9.13;;
61483;SDS011;47349;55.640;37.692;2023-07-16T04:49:41;11.25;;;8.70;;
61483;SDS011;47349;55.640;37.692;2023-07-16T04:52:09;11.55;;;8.13;;
61483;SDS011;47349;55.640;37.692;2023-07-16T04:54:37;9.80;;;8.02;;
61483;SDS011;47349;55.640;37.692;2023-07-16T04:57:05;10.82;;;8.45;;
61483;SDS011;47349;55.640;37.692;2023-07-16T04:59:34;11.05;;;7.80;;
61483;SDS011;47349;55.640;37.692;2023-07-16T05:02:04;11.27;;;8.82;;
61483;SDS011;47349;55.640;37.692;2023-07-16T05:04:33;11.60;;;9.15;;
61483;SDS011;47349;55.640;37.692;2023-07-16T05:07:04;10.63;;;8.15;;
61483;SDS011;47349;55.640;37.692;2023-07-16T05:09:32;12.13;;;8.25;;
61483;SDS011;47349;55.640;37.692;2023-07-16T05:11:59;12.77;;;8.50;;
61483;SDS011;47349;55.640;37.692;2023-07-16T05:14:27;11.07;;;8.43;;
61483;SDS011;47349;55.640;37.692;2023-07-16T05:16:55;11.38;;;8.23;;
61483;SDS011;47349;55.640;37.692;2023-07-16T05:19:23;11.40;;;8.73;;
61483;SDS011;47349;55.640;37.692;2023-07-16T05:21:51;11.18;;;8.82;;
61483;SDS011;47349;55.640;37.692;2023-07-16T05:24:18;12.60;;;9.10;;
61483;SDS011;47349;55.640;37.692;2023-07-16T05:26:45;13.77;;;9.02;;
61483;SDS011;47349;55.640;37.692;2023-07-16T05:29:12;10.00;;;7.35;;
61483;SDS011;47349;55.640;37.692;2023-07-16T05:31:43;14.75;;;9.85;;
61483;SDS011;47349;55.640;37.692;2023-07-16T05:34:11;10.93;;;8.55;;
61483;SDS011;47349;55.640;37.692;2023-07-16T05:36:39;12.57;;;9.55;;
61483;SDS011;47349;55.640;37.692;2023-07-16T05:39:08;11.60;;;9.48;;
61483;SDS011;47349;55.640;37.692;2023-07-16T05:41:35;11.15;;;9.40;;
61483;SDS011;47349;55.640;37.692;2023-07-16T05:44:03;11.15;;;10.05;;
61483;SDS011;47349;55.640;37.692;2023-07-16T05:46:30;11.52;;;8.88;;
61483;SDS011;47349;55.640;37.692;2023-07-16T05:49:05;19.90;;;9.27;;
61483;SDS011;47349;55.640;37.692;2023-07-16T05:51:32;14.23;;;9.52;;
61483;SDS011;47349;55.640;37.692;2023-07-16T05:54:00;13.05;;;10.15;;
61483;SDS011;47349;55.640;37.692;2023-07-16T05:56:27;11.25;;;9.15;;
61483;SDS011;47349;55.640;37.692;2023-07-16T05:58:54;11.90;;;9.52;;
61483;SDS011;47349;55.640;37.692;2023-07-16T06:01:25;12.73;;;9.50;;
61483;SDS011;47349;55.640;37.692;2023-07-16T06:03:52;14.95;;;9.80;;
61483;SDS011;47349;55.640;37.692;2023-07-16T06:06:20;12.82;;;8.32;;
61483;SDS011;47349;55.640;37.692;2023-07-16T06:08:48;12.05;;;9.80;;
61483;SDS011;47349;55.640;37.692;2023-07-16T06:11:17;10.52;;;8.98;;
61483;SDS011;47349;55.640;37.692;2023-07-16T06:13:46;11.63;;;9.07;;
61483;SDS011;47349;55.640;37.692;2023-07-16T06:16:13;13.73;;;8.88;;
61483;SDS011;47349;55.640;37.692;2023-07-16T06:18:42;13.60;;;8.48;;
61483;SDS011;47349;55.640;37.692;2023-07-16T06:21:09;11.05;;;8.43;;
61483;SDS011;47349;55.640;37.692;2023-07-16T06:23:37;8.80;;;7.03;;
61483;SDS011;47349;55.640;37.692;2023-07-16T06:26:05;10.63;;;8.73;;
61483;SDS011;47349;55.640;37.692;2023-07-16T06:28:36;10.73;;;8.52;;
61483;SDS011;47349;55.640;37.692;2023-07-16T06:31:03;9.68;;;8.60;;
61483;SDS011;47349;55.640;37.692;2023-07-16T06:33:30;8.77;;;5.78;;
61483;SDS011;47349;55.640;37.692;2023-07-16T06:35:58;12.73;;;8.15;;
61483;SDS011;47349;55.640;37.692;2023-07-16T06:38:27;9.77;;;7.53;;
61483;SDS011;47349;55.640;37.692;2023-07-16T06:40:55;11.75;;;8.52;;
61483;SDS011;47349;55.640;37.692;2023-07-16T06:43:23;13.30;;;8.40;;
61483;SDS011;47349;55.640;37.692;2023-07-16T06:45:50;10.38;;;7.97;;
61483;SDS011;47349;55.640;37.692;2023-07-16T06:48:20;12.60;;;8.15;;
61483;SDS011;47349;55.640;37.692;2023-07-16T06:50:47;9.93;;;7.65;;
61483;SDS011;47349;55.640;37.692;2023-07-16T06:53:14;9.90;;;8.50;;
61483;SDS011;47349;55.640;37.692;2023-07-16T06:55:42;10.38;;;7.15;;
61483;SDS011;47349;55.640;37.692;2023-07-16T06:58:10;9.95;;;7.82;;
61483;SDS011;47349;55.640;37.692;2023-07-16T07:00:38;13.70;;;7.72;;
61483;SDS011;47349;55.640;37.692;2023-07-16T07:03:06;10.05;;;7.07;;
61483;SDS011;47349;55.640;37.692;2023-07-16T07:05:44;7.78;;;6.72;;
61483;SDS011;47349;55.640;37.692;2023-07-16T07:08:12;10.52;;;7.53;;
61483;SDS011;47349;55.640;37.692;2023-07-16T07:10:42;8.55;;;7.07;;
61483;SDS011;47349;55.640;37.692;2023-07-16T07:13:10;8.43;;;6.20;;
61483;SDS011;47349;55.640;37.692;2023-07-16T07:15:47;9.30;;;6.32;;
61483;SDS011;47349;55.640;37.692;2023-07-16T07:18:19;8.15;;;6.97;;
61483;SDS011;47349;55.640;37.692;2023-07-16T07:20:47;7.68;;;6.10;;
61483;SDS011;47349;55.640;37.692;2023-07-16T07:23:15;8.88;;;6.97;;
61483;SDS011;47349;55.640;37.692;2023-07-16T07:25:43;9.40;;;6.47;;
61483;SDS011;47349;55.640;37.692;2023-07-16T07:28:29;9.73;;;6.70;;
61483;SDS011;47349;55.640;37.692;2023-07-16T07:31:10;10.65;;;7.03;;
61483;SDS011;47349;55.640;37.692;2023-07-16T07:33:42;10.43;;;6.93;;
61483;SDS011;47349;55.640;37.692;2023-07-16T07:36:11;12.57;;;7.07;;
61483;SDS011;47349;55.640;37.692;2023-07-16T07:38:53;12.27;;;8.07;;
61483;SDS011;47349;55.640;37.692;2023-07-16T07:41:21;9.50;;;7.05;;
61483;SDS011;47349;55.640;37.692;2023-07-16T07:43:48;9.45;;;7.93;;
61483;SDS011;47349;55.640;37.692;2023-07-16T07:46:15;11.10;;;7.80;;
61483;SDS011;47349;55.640;37.692;2023-07-16T07:48:43;9.88;;;7.18;;
61483;SDS011;47349;55.640;37.692;2023-07-16T07:51:10;11.40;;;7.80;;
61483;SDS011;47349;55.640;37.692;2023-07-16T07:53:38;11.60;;;7.40;;
61483;SDS011;47349;55.640;37.692;2023-07-16T07:56:06;9.15;;;6.75;;
61483;SDS011;47349;55.640;37.692;2023-07-16T07:58:46;9.63;;;7.53;;
61483;SDS011;47349;55.640;37.692;2023-07-16T08:01:14;9.38;;;7.20;;
61483;SDS011;47349;55.640;37.692;2023-07-16T08:03:41;7.05;;;5.72;;
61483;SDS011;47349;55.640;37.692;2023-07-16T08:06:09;7.70;;;6.88;;
61483;SDS011;47349;55.640;37.692;2023-07-16T08:08:38;9.43;;;6.47;;
61483;SDS011;47349;55.640;37.692;2023-07-16T08:11:07;8.05;;;6.45;;
61483;SDS011;47349;55.640;37.692;2023-07-16T08:13:34;7.28;;;5.82;;
61483;SDS011;47349;55.640;37.692;2023-07-16T08:16:15;8.02;;;5.72;;
61483;SDS011;47349;55.640;37.692;2023-07-16T08:18:43;9.13;;;5.90;;
61483;SDS011;47349;55.640;37.692;2023-07-16T08:21:25;6.40;;;5.75;;
61483;SDS011;47349;55.640;37.692;2023-07-16T08:23:55;8.70;;;5.60;;
61483;SDS011;47349;55.640;37.692;2023-07-16T08:26:26;6.30;;;5.53;;
61483;SDS011;47349;55.640;37.692;2023-07-16T08:28:58;7.82;;;5.53;;
61483;SDS011;47349;55.640;37.692;2023-07-16T08:31:30;9.20;;;5.95;;
61483;SDS011;47349;55.640;37.692;2023-07-16T08:34:05;7.55;;;5.00;;
61483;SDS011;47349;55.640;37.692;2023-07-16T08:36:36;7.95;;;5.22;;
61483;SDS011;47349;55.640;37.692;2023-07-16T08:39:19;6.70;;;4.90;;
61483;SDS011;47349;55.640;37.692;2023-07-16T08:41:55;6.05;;;4.93;;
61483;SDS011;47349;55.640;37.692;2023-07-16T08:44:29;8.98;;;5.00;;
61483;SDS011;47349;55.640;37.692;2023-07-16T08:47:13;8.60;;;4.95;;
61483;SDS011;47349;55.640;37.692;2023-07-16T08:49:55;6.60;;;4.90;;
61483;SDS011;47349;55.640;37.692;2023-07-16T08:52:36;6.88;;;4.75;;
61483;SDS011;47349;55.640;37.692;2023-07-16T08:55:18;7.85;;;5.35;;
61483;SDS011;47349;55.640;37.692;2023-07-16T08:57:53;7.18;;;5.13;;
61483;SDS011;47349;55.640;37.692;2023-07-16T09:00:21;5.43;;;4.72;;
61483;SDS011;47349;55.640;37.692;2023-07-16T09:02:52;6.38;;;5.05;;
61483;SDS011;47349;55.640;37.692;2023-07-16T09:05:20;8.30;;;4.93;;
61483;SDS011;47349;55.640;37.692;2023-07-16T09:08:12;7.57;;;5.40;;
61483;SDS011;47349;55.640;37.692;2023-07-16T09:10:53;7.88;;;5.22;;
61483;SDS011;47349;55.640;37.692;2023-07-16T09:13:22;10.55;;;6.30;;
61483;SDS011;47349;55.640;37.692;2023-07-16T09:15:54;6.82;;;4.82;;
61483;SDS011;47349;55.640;37.692;2023-07-16T09:18:24;7.03;;;5.82;;
61483;SDS011;47349;55.640;37.692;2023-07-16T09:21:09;6.75;;;4.57;;
61483;SDS011;47349;55.640;37.692;2023-07-16T09:24:13;5.53;;;4.30;;
61483;SDS011;47349;55.640;37.692;2023-07-16T09:27:00;7.68;;;5.47;;
61483;SDS011;47349;55.640;37.692;2023-07-16T09:29:29;6.65;;;4.55;;
61483;SDS011;47349;55.640;37.692;2023-07-16T09:32:01;5.68;;;4.50;;
61483;SDS011;47349;55.640;37.692;2023-07-16T09:34:45;6.68;;;4.78;;
61483;SDS011;47349;55.640;37.692;2023-07-16T09:37:17;4.78;;;4.13;;
61483;SDS011;47349;55.640;37.692;2023-07-16T09:39:49;6.90;;;4.00;;
61483;SDS011;47349;55.640;37.692;2023-07-16T09:42:16;6.40;;;4.57;;
61483;SDS011;47349;55.640;37.692;2023-07-16T09:44:58;4.97;;;4.18;;
61483;SDS011;47349;55.640;37.692;2023-07-16T09:47:36;5.03;;;3.92;;
61483;SDS011;47349;55.640;37.692;2023-07-16T09:50:18;4.78;;;3.97;;
61483;SDS011;47349;55.640;37.692;2023-07-16T09:52:46;5.63;;;3.60;;
61483;SDS011;47349;55.640;37.692;2023-07-16T09:55:33;5.43;;;4.22;;
61483;SDS011;47349;55.640;37.692;2023-07-16T09:58:06;6.60;;;4.55;;
61483;SDS011;47349;55.640;37.692;2023-07-16T10:00:44;6.22;;;4.40;;
61483;SDS011;47349;55.640;37.692;2023-07-16T10:03:27;6.38;;;4.63;;
61483;SDS011;47349;55.640;37.692;2023-07-16T10:06:12;5.03;;;4.00;;
61483;SDS011;47349;55.640;37.692;2023-07-16T10:08:49;6.65;;;4.32;;
61483;SDS011;47349;55.640;37.692;2023-07-16T10:11:18;9.38;;;5.03;;
61483;SDS011;47349;55.640;37.692;2023-07-16T10:13:51;6.88;;;4.07;;
61483;SDS011;47349;55.640;37.692;2023-07-16T10:16:21;4.60;;;4.10;;
61483;SDS011;47349;55.640;37.692;2023-07-16T10:19:04;7.18;;;4.03;;
61483;SDS011;47349;55.640;37.692;2023-07-16T10:21:37;7.68;;;4.50;;
61483;SDS011;47349;55.640;37.692;2023-07-16T10:24:19;5.15;;;4.07;;
61483;SDS011;47349;55.640;37.692;2023-07-16T10:27:00;5.55;;;4.25;;
61483;SDS011;47349;55.640;37.692;2023-07-16T10:29:50;6.03;;;3.92;;
61483;SDS011;47349;55.640;37.692;2023-07-16T10:32:50;7.57;;;3.90;;
61483;SDS011;47349;55.640;37.692;2023-07-16T10:35:22;6.18;;;3.92;;
61483;SDS011;47349;55.640;37.692;2023-07-16T10:37:56;4.53;;;3.40;;
61483;SDS011;47349;55.640;37.692;2023-07-16T10:40:25;5.00;;;3.78;;
61483;SDS011;47349;55.640;37.692;2023-07-16T10:42:57;4.40;;;3.90;;
61483;SDS011;47349;55.640;37.692;2023-07-16T10:45:44;4.30;;;3.70;;
61483;SDS011;47349;55.640;37.692;2023-07-16T10:48:18;3.97;;;3.22;;
61483;SDS011;47349;55.640;37.692;2023-07-16T10:50:56;3.97;;;3.58;;
61483;SDS011;47349;55.640;37.692;2023-07-16T10:56:38;5.47;;;4.32;;
61483;SDS011;47349;55.640;37.692;2023-07-16T10:59:20;3.85;;;3.45;;
61483;SDS011;47349;55.640;37.692;2023-07-16T11:02:02;5.75;;;3.67;;
61483;SDS011;47349;55.640;37.692;2023-07-16T11:04:35;3.75;;;3.00;;
61483;SDS011;47349;55.640;37.692;2023-07-16T11:07:14;6.93;;;3.60;;
61483;SDS011;47349;55.640;37.692;2023-07-16T11:09:51;3.83;;;3.05;;
61483;SDS011;47349;55.640;37.692;2023-07-16T11:12:22;4.13;;;3.60;;
61483;SDS011;47349;55.640;37.692;2023-07-16T11:15:07;4.57;;;3.67;;
61483;SDS011;47349;55.640;37.692;2023-07-16T11:17:40;4.60;;;3.75;;
61483;SDS011;47349;55.640;37.692;2023-07-16T11:20:11;4.82;;;3.53;;
61483;SDS011;47349;55.640;37.692;2023-07-16T11:22:38;4.75;;;3.90;;
61483;SDS011;47349;55.640;37.692;2023-07-16T11:25:12;5.97;;;3.60;;
61483;SDS011;47349;55.640;37.692;2023-07-16T11:27:55;7.50;;;3.70;;
61483;SDS011;47349;55.640;37.692;2023-07-16T11:30:24;4.53;;;3.90;;
61483;SDS011;47349;55.640;37.692;2023-07-16T11:33:00;5.32;;;4.25;;
61483;SDS011;47349;55.640;37.692;2023-07-16T11:35:28;4.90;;;3.70;;
61483;SDS011;47349;55.640;37.692;2023-07-16T11:38:04;5.40;;;4.00;;
61483;SDS011;47349;55.640;37.692;2023-07-16T11:40:33;5.10;;;4.00;;
61483;SDS011;47349;55.640;37.692;2023-07-16T11:43:12;6.97;;;3.53;;
61483;SDS011;47349;55.640;37.692;2023-07-16T11:45:46;5.97;;;4.72;;
61483;SDS011;47349;55.640;37.692;2023-07-16T11:48:14;7.57;;;4.32;;
61483;SDS011;47349;55.640;37.692;2023-07-16T11:50:41;5.32;;;4.53;;
61483;SDS011;47349;55.640;37.692;2023-07-16T11:53:09;5.10;;;4.15;;
61483;SDS011;47349;55.640;37.692;2023-07-16T11:55:36;5.07;;;4.30;;
61483;SDS011;47349;55.640;37.692;2023-07-16T11:58:03;4.68;;;3.95;;
61483;SDS011;47349;55.640;37.692;2023-07-16T12:00:31;5.10;;;4.00;;
61483;SDS011;47349;55.640;37.692;2023-07-16T12:02:58;6.07;;;3.58;;
61483;SDS011;47349;55.640;37.692;2023-07-16T12:05:30;4.30;;;3.10;;
61483;SDS011;47349;55.640;37.692;2023-07-16T12:08:17;4.20;;;3.00;;
61483;SDS011;47349;55.640;37.692;2023-07-16T12:10:44;3.33;;;2.88;;
61483;SDS011;47349;55.640;37.692;2023-07-16T12:13:11;3.88;;;3.33;;
61483;SDS011;47349;55.640;37.692;2023-07-16T12:15:39;4.38;;;3.30;;
61483;SDS011;47349;55.640;37.692;2023-07-16T12:18:06;6.47;;;3.28;;
61483;SDS011;47349;55.640;37.692;2023-07-16T12:20:34;9.05;;;2.58;;
61483;SDS011;47349;55.640;37.692;2023-07-16T12:23:07;4.78;;;3.42;;
61483;SDS011;47349;55.640;37.692;2023-07-16T12:25:36;4.40;;;3.50;;
61483;SDS011;47349;55.640;37.692;2023-07-16T12:28:06;3.78;;;3.10;;
61483;SDS011;47349;55.640;37.692;2023-07-16T12:30:33;3.75;;;3.08;;
61483;SDS011;47349;55.640;37.692;2023-07-16T12:33:00;4.75;;;3.42;;
61483;SDS011;47349;55.640;37.692;2023-07-16T12:35:28;4.00;;;3.60;;
61483;SDS011;47349;55.640;37.692;2023-07-16T12:37:55;5.47;;;4.10;;
61483;SDS011;47349;55.640;37.692;2023-07-16T12:40:25;7.05;;;4.93;;
61483;SDS011;47349;55.640;37.692;2023-07-16T12:43:06;4.28;;;3.78;;
61483;SDS011;47349;55.640;37.692;2023-07-16T12:45:35;4.55;;;3.75;;
61483;SDS011;47349;55.640;37.692;2023-07-16T12:48:02;5.18;;;3.22;;
61483;SDS011;47349;55.640;37.692;2023-07-16T12:50:30;6.28;;;3.75;;
61483;SDS011;47349;55.640;37.692;2023-07-16T12:52:57;3.65;;;3.17;;
61483;SDS011;47349;55.640;37.692;2023-07-16T12:55:24;5.22;;;3.47;;
61483;SDS011;47349;55.640;37.692;2023-07-16T12:57:52;4.05;;;3.30;;
61483;SDS011;47349;55.640;37.692;2023-07-16T13:00:19;4.53;;;3.45;;
61483;SDS011;47349;55.640;37.692;2023-07-16T13:02:47;5.13;;;3.53;;
61483;SDS011;47349;55.640;37.692;2023-07-16T13:05:14;4.10;;;3.33;;
61483;SDS011;47349;55.640;37.692;2023-07-16T13:07:51;4.25;;;3.72;;
61483;SDS011;47349;55.640;37.692;2023-07-16T13:10:18;3.80;;;3.42;;
61483;SDS011;47349;55.640;37.692;2023-07-16T13:12:50;7.03;;;4.32;;
61483;SDS011;47349;55.640;37.692;2023-07-16T13:15:17;3.97;;;3.65;;
61483;SDS011;47349;55.640;37.692;2023-07-16T13:17:45;9.88;;;4.45;;
61483;SDS011;47349;55.640;37.692;2023-07-16T13:20:12;5.63;;;3.70;;
61483;SDS011;47349;55.640;37.692;2023-07-16T13:22:40;4.38;;;3.97;;
61483;SDS011;47349;55.640;37.692;2023-07-16T13:25:07;4.53;;;4.03;;
61483;SDS011;47349;55.640;37.692;2023-07-16T13:27:35;4.82;;;3.97;;
61483;SDS011;47349;55.640;37.692;2023-07-16T13:30:04;8.25;;;4.82;;
61483;SDS011;47349;55.640;37.692;2023-07-16T13:32:32;4.57;;;4.18;;
61483;SDS011;47349;55.640;37.692;2023-07-16T13:35:01;6.45;;;4.35;;
61483;SDS011;47349;55.640;37.692;2023-07-16T13:37:31;7.90;;;4.20;;
61483;SDS011;47349;55.640;37.692;2023-07-16T13:39:58;4.18;;;3.38;;
61483;SDS011;47349;55.640;37.692;2023-07-16T13:42:26;8.23;;;3.67;;
61483;SDS011;47349;55.640;37.692;2023-07-16T13:44:54;4.97;;;2.83;;
61483;SDS011;47349;55.640;37.692;2023-07-16T13:47:23;3.38;;;2.80;;
61483;SDS011;47349;55.640;37.692;2023-07-16T13:49:53;3.00;;;2.70;;
61483;SDS011;47349;55.640;37.692;2023-07-16T13:52:38;3.60;;;3.30;;
61483;SDS011;47349;55.640;37.692;2023-07-16T13:55:06;3.40;;;3.10;;
61483;SDS011;47349;55.640;37.692;2023-07-16T13:57:34;5.32;;;3.30;;
61483;SDS011;47349;55.640;37.692;2023-07-16T14:00:02;3.60;;;3.22;;
61483;SDS011;47349;55.640;37.692;2023-07-16T14:02:31;5.25;;;4.07;;
61483;SDS011;47349;55.640;37.692;2023-07-16T14:04:58;4.10;;;3.70;;
61483;SDS011;47349;55.640;37.692;2023-07-16T14:07:26;5.38;;;3.33;;
61483;SDS011;47349;55.640;37.692;2023-07-16T14:09:54;4.85;;;3.55;;
61483;SDS011;47349;55.640;37.692;2023-07-16T14:12:22;6.05;;;3.30;;
61483;SDS011;47349;55.640;37.692;2023-07-16T14:14:52;3.58;;;3.03;;
61483;SDS011;47349;55.640;37.692;2023-07-16T14:17:20;4.25;;;3.67;;
61483;SDS011;47349;55.640;37.692;2023-07-16T14:19:50;6.55;;;4.18;;
61483;SDS011;47349;55.640;37.692;2023-07-16T14:22:18;5.35;;;3.88;;
61483;SDS011;47349;55.640;37.692;2023-07-16T14:24:45;4.35;;;3.50;;
61483;SDS011;47349;55.640;37.692;2023-07-16T14:27:17;5.72;;;3.17;;
61483;SDS011;47349;55.640;37.692;2023-07-16T14:29:47;5.32;;;3.40;;
61483;SDS011;47349;55.640;37.692;2023-07-16T14:32:33;3.78;;;2.90;;
61483;SDS011;47349;55.640;37.692;2023-07-16T14:35:02;3.28;;;2.97;;
61483;SDS011;47349;55.640;37.692;2023-07-16T14:37:31;5.22;;;3.38;;
61483;SDS011;47349;55.640;37.692;2023-07-16T14:39:58;5.32;;;3.45;;
61483;SDS011;47349;55.640;37.692;2023-07-16T14:42:25;7.18;;;3.20;;
61483;SDS011;47349;55.640;37.692;2023-07-16T14:44:53;3.80;;;3.35;;
61483;SDS011;47349;55.640;37.692;2023-07-16T14:47:21;5.38;;;3.28;;
61483;SDS011;47349;55.640;37.692;2023-07-16T14:49:52;4.82;;;3.92;;
61483;SDS011;47349;55.640;37.692;2023-07-16T14:52:19;7.95;;;4.00;;
61483;SDS011;47349;55.640;37.692;2023-07-16T14:54:46;5.18;;;3.50;;
61483;SDS011;47349;55.640;37.692;2023-07-16T14:57:14;4.18;;;3.78;;
61483;SDS011;47349;55.640;37.692;2023-07-16T14:59:41;5.00;;;4.30;;
61483;SDS011;47349;55.640;37.692;2023-07-16T15:02:08;6.00;;;4.10;;
61483;SDS011;47349;55.640;37.692;2023-07-16T15:04:36;6.50;;;4.72;;
61483;SDS011;47349;55.640;37.692;2023-07-16T15:07:05;6.75;;;3.10;;
61483;SDS011;47349;55.640;37.692;2023-07-16T15:09:33;4.38;;;3.38;;
61483;SDS011;47349;55.640;37.692;2023-07-16T15:12:05;4.07;;;3.63;;
61483;SDS011;47349;55.640;37.692;2023-07-16T15:14:36;4.60;;;3.50;;